Flight Track Log - Related Links

Times and Time Zones

All times are in EDT time to prevent confusion due to time zone crossing. See the SWA2860 flight status page for this flight to view local times or setup timezone preferences in your user account.

Time Position Orientation Groundspeed Altitude Reporting Facility
EDT Latitude Longitude Course Direction KTS MPH feet Rate Location/Type
Sun 01:41:13 PM 39.8667 -104.5500 108° East 219 252 7,200  Level Denver TRACON
Sun 01:42:04 PM 39.8403 -104.4842 118° Southeast 254 292 8,500 1,540 Climbing Denver Center
Sun 01:43:06 PM 39.8061 -104.3831 114° Southeast 301 346 10,100 1,839 Climbing Denver Center
Sun 01:44:08 PM 39.7628 -104.2589 114° Southeast 352 405 12,300 1,935 Climbing Denver Center
Sun 01:45:10 PM 39.7308 -104.1667 114° Southeast 363 418 14,100 2,516 Climbing Denver Center
Sun 01:46:00 PM 39.5850 -103.7900 108° East  Level FlightAware Approximate
Sun 01:46:12 PM 39.6728 -104.0036 115° Southeast 379 436 17,500  Level Denver Center
Sun 01:47:14 PM 39.6239 -103.8744 116° Southeast 402 463 19,500 2,032 Climbing Denver Center
Sun 01:48:16 PM 39.5758 -103.7381 115° Southeast 410 472 21,700 2,177 Climbing Denver Center
Sun 01:49:18 PM 39.5406 -103.5956 108° East 417 480 24,000 1,984 Climbing Denver Center
Sun 01:50:20 PM 39.5003 -103.4475 109° East 432 497 25,800 1,584 Climbing Denver Center
Sun 01:51:23 PM 39.4606 -103.2967 109° East 441 507 27,300 2,016 Climbing Denver Center
Sun 01:52:25 PM 39.4111 -103.1097 109° East 457 526 30,000 2,000 Climbing Denver Center
Sun 01:53:26 PM 39.3794 -102.9889 109° East 448 516 31,400 1,452 Climbing Denver Center
Sun 01:54:29 PM 39.3297 -102.8075 109° East 447 514 33,000 1,296 Climbing Denver Center
Sun 01:55:31 PM 39.2825 -102.6375 110° East 456 525 34,100 919 Climbing Denver Center
Sun 01:56:33 PM 39.2422 -102.4853 109° East 465 535 34,900 1,065 Climbing Denver Center
Sun 01:57:35 PM 39.1925 -102.3050 110° East 476 548 36,300 1,016 Climbing Denver Center
Sun 01:58:37 PM 39.1183 -102.1744 126° Southeast 473 544 37,000 339 Climbing Denver Center
Sun 01:59:39 PM 39.0333 -102.0544 132° Southeast 475 547 37,000  Level Denver Center
Sun 02:00:41 PM 38.9358 -101.9108 131° Southeast 476 548 37,000  Level Denver Center
Sun 02:01:43 PM 38.8511 -101.7922 133° Southeast 472 543 37,000  Level Denver Center
Sun 02:02:45 PM 38.7533 -101.6539 132° Southeast 469 540 37,000  Level Denver Center
Sun 02:03:47 PM 38.6694 -101.5358 132° Southeast 469 540 37,000  Level Denver Center
Sun 02:04:49 PM 38.5711 -101.3975 132° Southeast 470 541 37,000  Level Denver Center
Sun 02:05:51 PM 38.4861 -101.2789 132° Southeast 471 542 37,000  Level Denver Center
Sun 02:06:53 PM 38.3861 -101.1411 133° Southeast 473 544 37,000  Level Denver Center
Sun 02:07:42 PM 38.3147 -101.0403 132° Southeast 473 544 37,000  Level Kansas City Center
Sun 02:09:47 PM 38.1306 -100.7864 133° Southeast 470 541 37,000  Level Kansas City Center
Sun 02:10:49 PM 38.0458 -100.6689 132° Southeast 468 539 37,000  Level Kansas City Center
Sun 02:11:50 PM 37.9603 -100.5522 133° Southeast 468 539 37,000  Level Kansas City Center
Sun 02:12:54 PM 37.8597 -100.4169 133° Southeast 468 539 37,000  Level Kansas City Center
Sun 02:13:56 PM 37.7739 -100.3000 133° Southeast 469 540 37,000  Level Kansas City Center
Sun 02:14:57 PM 37.6736 -100.1658 133° Southeast 468 539 37,000  Level Kansas City Center
Sun 02:15:58 PM 37.5878 -100.0494 133° Southeast 471 542 37,000  Level Kansas City Center
Sun 02:17:01 PM 37.4878 -99.9147 133° Southeast 470 541 37,000  Level Kansas City Center
Sun 02:18:04 PM 37.4017 -99.8017 134° Southeast 468 539 37,000  Level Kansas City Center
Sun 02:19:05 PM 37.3031 -99.6681 133° Southeast 467 537 37,000  Level Kansas City Center
Sun 02:20:06 PM 37.2161 -99.5558 134° Southeast 468 539 37,000  Level Kansas City Center
Sun 02:21:10 PM 37.1228 -99.4339 134° Southeast 465 535 37,000  Level Kansas City Center
Sun 02:22:10 PM 37.0336 -99.3169 134° Southeast 463 533 37,000  Level Kansas City Center
Sun 02:23:12 PM 36.9456 -99.2014 134° Southeast 459 528 37,000  Level Kansas City Center
Sun 02:24:16 PM 36.8561 -99.0850 134° Southeast 461 531 37,000  Level Kansas City Center
Sun 02:25:16 PM 36.7664 -98.9675 134° Southeast 463 533 37,000  Level Kansas City Center
Sun 02:26:20 PM 36.6761 -98.8508 134° Southeast 464 534 37,000  Level Kansas City Center
Sun 02:27:20 PM 36.5861 -98.7350 134° Southeast 463 533 37,000  Level Kansas City Center
Sun 02:28:22 PM 36.4789 -98.5983 134° Southeast 458 527 37,000  Level Kansas City Center
Sun 02:29:25 PM 36.3889 -98.4819 134° Southeast 459 528 37,000  Level Kansas City Center
Sun 02:30:26 PM 36.2989 -98.3656 134° Southeast 463 533 37,000  Level Kansas City Center
Sun 02:31:02 PM 36.2436 -98.2975 135° Southeast 463 533 37,000  Level Kansas City Center
Sun 02:32:05 PM 36.1522 -98.1831 135° Southeast 464 534 37,000  Level Kansas City Center
Sun 02:33:06 PM 36.0625 -98.0669 134° Southeast 464 534 37,000  Level Kansas City Center
Sun 02:34:10 PM 35.9606 -97.9400 135° Southeast 461 531 37,000  Level Kansas City Center
Sun 02:35:11 PM 35.8717 -97.8275 134° Southeast 459 528 37,000  Level Kansas City Center
Sun 02:36:12 PM 35.7825 -97.7156 134° Southeast 458 527 37,000  Level Kansas City Center
Sun 02:37:16 PM 35.6922 -97.6047 135° Southeast 458 527 37,000  Level Kansas City Center
Sun 02:38:16 PM 35.6028 -97.4928 134° Southeast 457 526 37,000  Level Kansas City Center
Sun 02:39:21 PM 35.5125 -97.3797 134° Southeast 459 528 37,000  Level Kansas City Center
Sun 02:40:18 PM 35.4167 -97.2581 134° Southeast 463 533 37,000  Level Fort Worth Center
Sun 02:41:18 PM 35.3164 -97.1414 136° Southeast 469 540 37,000  Level Fort Worth Center
Sun 02:42:18 PM 35.2242 -97.0322 136° Southeast 469 540 37,000  Level Fort Worth Center
Sun 02:43:18 PM 35.1342 -96.9211 135° Southeast 469 540 37,000  Level Fort Worth Center
Sun 02:44:18 PM 35.0419 -96.8100 135° Southeast 469 540 37,000  Level Fort Worth Center
Sun 02:45:18 PM 34.9494 -96.6992 136° Southeast 463 533 37,000  Level Fort Worth Center
Sun 02:46:18 PM 34.8569 -96.5886 136° Southeast 463 533 37,000  Level Fort Worth Center
Sun 02:47:18 PM 34.7644 -96.4783 136° Southeast 463 533 37,000  Level Fort Worth Center
Sun 02:48:18 PM 34.6739 -96.3681 135° Southeast 458 527 37,000  Level Fort Worth Center
Sun 02:49:18 PM 34.5811 -96.2608 136° Southeast 458 527 37,000  Level Fort Worth Center
Sun 02:50:18 PM 34.4883 -96.1514 136° Southeast 458 527 37,000  Level Fort Worth Center
Sun 02:51:18 PM 34.3994 -96.0419 135° Southeast 458 527 37,000  Level Fort Worth Center
Sun 02:52:18 PM 34.3067 -95.9353 136° Southeast 458 527 37,000  Level Fort Worth Center
Sun 02:53:18 PM 34.2156 -95.8286 136° Southeast 458 527 37,000  Level Fort Worth Center
Sun 02:54:18 PM 34.1222 -95.7225 137° Southeast 458 527 37,000  Level Fort Worth Center
Sun 02:55:18 PM 34.0394 -95.6114 132° Southeast 458 527 37,000  Level Fort Worth Center
Sun 02:56:18 PM 33.9356 -95.4933 137° Southeast 458 527 37,000  Level Fort Worth Center
Sun 02:57:18 PM 33.8419 -95.3878 137° Southeast 458 527 37,000  Level Fort Worth Center
Sun 02:58:18 PM 33.7483 -95.2800 136° Southeast 463 533 37,000  Level Fort Worth Center
Sun 02:59:18 PM 33.6567 -95.1725 136° Southeast 458 527 37,000  Level Fort Worth Center
Sun 03:00:18 PM 33.5650 -95.0653 136° Southeast 458 527 37,000  Level Fort Worth Center
Sun 03:01:18 PM 33.4689 -94.9558 136° Southeast 460 529 37,000 550 Level Fort Worth Center
Sun 03:02:18 PM 33.3750 -94.8464 136° Southeast 460 529 38,100 1,000 Climbing Fort Worth Center
Sun 03:03:18 PM 33.2831 -94.7397 136° Southeast 460 529 39,000 450 Climbing Fort Worth Center
Sun 03:04:18 PM 33.1867 -94.6333 137° Southeast 460 529 39,000  Level Fort Worth Center
Sun 03:05:18 PM 33.0925 -94.5272 137° Southeast 460 529 39,000  Level Fort Worth Center
Sun 03:06:18 PM 32.9983 -94.4214 137° Southeast 460 529 39,000  Level Fort Worth Center
Sun 03:07:18 PM 32.9039 -94.3131 136° Southeast 460 529 39,000  Level Fort Worth Center
Sun 03:08:18 PM 32.8136 -94.2100 136° Southeast 460 529 39,000  Level Fort Worth Center
Sun 03:09:18 PM 32.7189 -94.1047 137° Southeast 460 529 39,000  Level Fort Worth Center
Sun 03:10:18 PM 32.6286 -94.0019 136° Southeast 460 529 39,000  Level Fort Worth Center
Sun 03:11:18 PM 32.5400 -93.8994 136° Southeast 455 524 39,000  Level Fort Worth Center
Sun 03:13:37 PM 32.3433 -93.6825 137° Southeast 450 518 39,000  Level Houston Center
Sun 03:14:39 PM 32.2453 -93.5739 137° Southeast 456 525 39,000  Level Houston Center
Sun 03:15:41 PM 32.1539 -93.4722 137° Southeast 453 521 39,000  Level Houston Center
Sun 03:16:42 PM 32.0428 -93.3497 137° Southeast 455 524 39,000  Level Houston Center
Sun 03:17:44 PM 31.9500 -93.2486 137° Southeast 456 525 39,000  Level Houston Center
Sun 03:18:46 PM 31.8558 -93.1467 137° Southeast 459 528 39,000  Level Houston Center
Sun 03:19:48 PM 31.7653 -93.0503 138° Southeast 459 528 39,000  Level Houston Center
Sun 03:20:50 PM 31.6717 -92.9500 138° Southeast 457 526 39,000  Level Houston Center
Sun 03:21:52 PM 31.5914 -92.8339 129° Southeast 468 539 39,000  Level Houston Center
Sun 03:22:53 PM 31.5039 -92.6925 126° Southeast 453 521 39,000  Level Houston Center
Sun 03:23:55 PM 31.4297 -92.5731 126° Southeast 452 520 39,000  Level Houston Center
Sun 03:24:57 PM 31.3531 -92.4528 127° Southeast 456 525 39,000  Level Houston Center
Sun 03:25:59 PM 31.2778 -92.3322 126° Southeast 459 528 39,000  Level Houston Center
Sun 03:27:00 PM 31.2042 -92.2164 127° Southeast 449 517 39,000  Level Houston Center
Sun 03:28:02 PM 31.1306 -92.1008 127° Southeast 444 511 39,000  Level Houston Center
Sun 03:29:04 PM 31.0508 -91.9728 126° Southeast 441 507 39,000  Level Houston Center
Sun 03:30:06 PM 30.9772 -91.8569 127° Southeast 444 511 39,000  Level Houston Center
Sun 03:31:08 PM 30.9025 -91.7417 127° Southeast 445 512 39,000  Level Houston Center
Sun 03:32:10 PM 30.8289 -91.6261 127° Southeast 446 513 39,000  Level Houston Center
Sun 03:33:11 PM 30.7553 -91.5114 127° Southeast 444 511 39,000  Level Houston Center
Sun 03:34:13 PM 30.6706 -91.3794 127° Southeast 440 506 39,000  Level Houston Center
Sun 03:35:15 PM 30.5981 -91.2661 127° Southeast 438 504 39,000  Level Houston Center
Sun 03:36:17 PM 30.5256 -91.1547 127° Southeast 435 501 39,000  Level Houston Center
Sun 03:37:19 PM 30.4511 -91.0436 128° Southeast 436 502 39,000  Level Houston Center
Sun 03:38:21 PM 30.3794 -90.9328 127° Southeast 433 498 39,000  Level Houston Center
Sun 03:39:23 PM 30.2928 -90.8000 127° Southeast 431 496 39,000  Level Houston Center
Sun 03:40:24 PM 30.2197 -90.6900 128° Southeast 432 497 39,000  Level Houston Center
Sun 03:41:26 PM 30.1472 -90.5789 127° Southeast 434 499 39,000  Level Houston Center
Sun 03:42:28 PM 30.0756 -90.4694 127° Southeast 431 496 39,000  Level Houston Center
Sun 03:43:30 PM 30.0025 -90.3600 128° Southeast 432 497 39,000  Level Houston Center
Sun 03:44:32 PM 29.9294 -90.2494 127° Southeast 436 502 39,000  Level Houston Center
Sun 03:45:34 PM 29.8414 -90.1192 128° Southeast 434 499 39,000  Level Houston Center
Sun 03:46:36 PM 29.7689 -90.0094 127° Southeast 434 499 39,000  Level Houston Center
Sun 03:47:38 PM 29.6992 -89.8961 125° Southeast 439 505 39,000  Level Houston Center
Sun 03:48:39 PM 29.6558 -89.7622 110° East 448 516 39,000  Level Houston Center
Sun 03:49:41 PM 29.6144 -89.6292 110° East 446 513 39,000  Level Houston Center
Sun 03:50:43 PM 29.5653 -89.4672 109° East 450 518 39,000  Level Houston Center
Sun 03:51:45 PM 29.5239 -89.3347 110° East 445 512 39,000  Level Houston Center
Sun 03:52:47 PM 29.4814 -89.2011 110° East 447 514 39,000  Level Houston Center
Sun 03:53:49 PM 29.4406 -89.0686 109° East 443 510 39,000  Level Houston Center
Sun 03:54:51 PM 29.3983 -88.9378 110° East 440 506 39,000  Level Houston Center
Sun 03:55:53 PM 29.3553 -88.8039 110° East 448 516 39,000  Level Houston Center
Sun 03:56:55 PM 29.3047 -88.6433 110° East 448 516 39,000  Level Houston Center
Sun 03:57:57 PM 29.2611 -88.5069 110° East 454 522 39,000  Level Houston Center
Sun 03:58:59 PM 29.2169 -88.3736 111° Southeast 451 519 39,000  Level Houston Center
Sun 04:00:01 PM 29.1744 -88.2389 110° East 452 520 39,000  Level Houston Center
Sun 04:01:03 PM 29.1308 -88.1058 111° Southeast 448 516 39,000  Level Houston Center
Sun 04:02:05 PM 29.0842 -87.9603 110° East 444 511 39,000  Level Houston Center
Sun 04:03:07 PM 29.0456 -87.8250 108° East 447 514 39,000  Level Houston Center
Sun 04:04:09 PM 29.0158 -87.6875 104° East 448 516 39,000  Level Houston Center
Sun 04:05:11 PM 28.9789 -87.5211 104° East 451 519 39,000  Level Houston Center
Sun 04:06:13 PM 28.9483 -87.3839 104° East 448 516 39,000  Level Houston Center
Sun 04:07:15 PM 28.9169 -87.2467 105° East 449 517 39,000  Level Houston Center
Sun 04:08:17 PM 28.8847 -87.1086 105° East 450 518 39,000  Level Houston Center
Sun 04:09:06 PM 28.8564 -86.9958 106° East 438 504 39,000  Level Jacksonville Center
Sun 04:10:06 PM 28.8272 -86.8594 104° East 443 510 39,000  Level Jacksonville Center
Sun 04:11:06 PM 28.7961 -86.7208 104° East 443 510 39,000  Level Jacksonville Center
Sun 04:12:06 PM 28.7625 -86.5822 105° East 448 516 39,000  Level Jacksonville Center
Sun 04:13:06 PM 28.7311 -86.4439 104° East 448 516 39,000  Level Jacksonville Center
Sun 04:14:06 PM 28.6972 -86.3100 106° East 440 506 39,000  Level Jacksonville Center
Sun 04:15:06 PM 28.6672 -86.1742 104° East 445 512 39,000  Level Jacksonville Center
Sun 04:16:06 PM 28.6331 -86.0358 106° East 445 512 39,000  Level Jacksonville Center
Sun 04:17:06 PM 28.6008 -85.9050 106° East 440 506 39,000  Level Jacksonville Center
Sun 04:18:06 PM 28.5686 -85.7667 105° East 440 506 39,000  Level Jacksonville Center
Sun 04:19:06 PM 28.5358 -85.6336 106° East 440 506 39,000  Level Jacksonville Center
Sun 04:20:06 PM 28.5033 -85.5028 106° East 440 506 39,000  Level Jacksonville Center
Sun 04:21:06 PM 28.4725 -85.3697 105° East 440 506 39,000  Level Jacksonville Center
Sun 04:22:06 PM 28.4417 -85.2367 105° East 433 498 39,000  Level Jacksonville Center
Sun 04:23:06 PM 28.4064 -85.1014 106° East 438 504 39,000 -485 Level Jacksonville Center
Sun 04:25:24 PM 28.3350 -84.8019 105° East 437 503 37,400 -788 Descending Miami Center
Sun 04:26:24 PM 28.3006 -84.6700 106° East 431 496 36,400 -1,100 Descending Miami Center
Sun 04:27:24 PM 28.2658 -84.5406 107° East 424 488 35,200 -2,050 Descending Miami Center
Sun 04:28:24 PM 28.2372 -84.4139 104° East 411 473 32,300 -2,700 Descending Miami Center
Sun 04:29:24 PM 28.2086 -84.2825 104° East 411 473 29,800 -2,250 Descending Miami Center
Sun 04:30:24 PM 28.1733 -84.1581 108° East 421 484 27,800 -2,050 Descending Miami Center
Sun 04:31:24 PM 28.1419 -84.0383 107° East 414 476 25,700 -2,100 Descending Miami Center
Sun 04:32:24 PM 28.1083 -83.9186 108° East 403 464 23,600 -2,100 Descending Miami Center
Sun 04:33:24 PM 28.0828 -83.8019 104° East 392 451 21,500 -2,050 Descending Miami Center
Sun 04:34:24 PM 28.0547 -83.6897 106° East 381 438 19,500 -1,900 Descending Miami Center
Sun 04:35:24 PM 28.0244 -83.5797 107° East 369 425 17,700 -1,950 Descending Miami Center
Sun 04:36:24 PM 27.9961 -83.4722 107° East 358 412 15,600 -2,000 Descending Miami Center
Sun 04:37:24 PM 27.9694 -83.3675 106° East 347 399 13,700 -1,850 Descending Miami Center
Sun 04:38:24 PM 27.9408 -83.2672 108° East 347 399 11,900 -1,300 Descending Miami Center
Sun 04:39:24 PM 27.9303 -83.1703 97° East 329 379 11,100 -1,050 Descending Miami Center
Sun 04:40:24 PM 27.9342 -83.0836 87° East 299 344 9,800 -1,100 Descending Miami Center
Sun 04:41:24 PM 27.9358 -82.9969 89° East 288 331 8,900 -1,150 Descending Miami Center
Sun 04:42:24 PM 27.9497 -82.9156 79° East 271 312 7,500 -1,299 Descending Miami Center
Sun 04:43:01 PM 27.9667 -82.8667 69° East 257 296 6,800 -1,113 Descending Tampa TRACON
Sun 04:44:01 PM 27.9833 -82.7833 77° East 250 288 5,700 -947 Descending Tampa TRACON
Sun 04:44:55 PM 27.9833 -82.7167 90° East 245 282 5,000 -368 Descending Tampa TRACON
Sun 04:45:55 PM 27.9833 -82.6500 90° East 226 260 5,000 -364 Level Tampa TRACON
Sun 04:47:07 PM 27.9333 -82.6167 150° Southeast 215 247 4,200 -682 Descending Tampa TRACON
Sun 04:48:07 PM 27.8667 -82.6167 180° South 218 251 3,500 -778 Descending Tampa TRACON
Sun 04:48:55 PM 27.8333 -82.6000 156° South 204 235 2,800 -444 Descending Tampa TRACON
Sun 04:49:55 PM 27.8500 -82.5500 69° East 207 238 2,700 -619 Descending Tampa TRACON
Sun 04:51:01 PM 27.9167 -82.5333 12° North 170 196 1,500 -1,048 Descending Tampa TRACON
Sun 04:52:01 PM 27.9500 -82.5333 360° North 142 163 500 -1,000 Descending Tampa TRACON
Sun 04:54:00 PM 27.9667 -82.5167 19° North  Level FlightAware Approximate
Sun 05:01:00 PM 27.9755 -82.5332 19° North  Level Estimated

Login

Don't have an account? Register now (free) for customized features, flight alerts, and more!